New Nada — 3ELP9 — position and weather

sailwx.info

Track history (hours):
 
Tides and Currents Weather Stations Pressure Air Temp Water Temp Dewpoint Dewpoint Depression Visibility Wind Speed Wind Dir Waves Ship Positions

New Nada

Last reported at 2018-Jul-21 09:38 UTC. Time now 2018-Jul-22 14:45 UTC.
Position N 39°18' W 072°60'.

Length 180 m; beam 32.2 m.

Type: Cargo ship. MMSI: 356005000.

Date/timePositionNaut miles runAvg speedWind from/ knotsBaromVisibWave heightAir tempDewpointWater temp
2018-Jul-21 09:38N 39°18' W 072°60'2316.9
2018-Jul-21 08:17N 39°39' W 073°09'5715.7
2018-Jul-21 04:41N 40°27' W 073°49'2 8.8
2018-Jul-21 04:30N 40°28' W 073°51'612.0
2018-Jul-21 04:01N 40°31' W 073°58'713.2
2018-Jul-21 03:30N 40°36' W 074°03'4 8.0
2018-Jul-21 03:00N 40°39' W 074°07'2 3.5
2018-Jul-21 02:30N 40°40' W 074°08'2 2.9
2018-Jul-21 01:59N 40°41' W 074°08'0 0.0
2018-Jul-21 01:29N 40°41' W 074°08'0 0.0
2018-Jul-21 00:59N 40°41' W 074°08'0 0.0
2018-Jul-21 00:26N 40°41' W 074°08'0 0.0
2018-Jul-20 23:59N 40°41' W 074°08'0 0.0
2018-Jul-20 23:29N 40°41' W 074°08'0 0.0
2018-Jul-20 22:59N 40°41' W 074°08'0 0.0
2018-Jul-20 22:26N 40°41' W 074°08'0 0.0
2018-Jul-20 21:59N 40°41' W 074°08'0 0.0
2018-Jul-20 21:29N 40°41' W 074°08'0 0.0
2018-Jul-20 20:59N 40°41' W 074°08'0 0.0
2018-Jul-20 20:29N 40°41' W 074°08'0 0.0
2018-Jul-20 19:59N 40°41' W 074°08'0 0.0
2018-Jul-20 19:29N 40°41' W 074°08'0 0.0
2018-Jul-20 18:56N 40°41' W 074°08'0 0.0
2018-Jul-20 18:29N 40°41' W 074°08'0 0.0
2018-Jul-20 17:59N 40°41' W 074°08'0 0.0
2018-Jul-20 17:29N 40°41' W 074°08'0 0.0
2018-Jul-20 16:59N 40°41' W 074°08'0 0.0
2018-Jul-20 16:29N 40°41' W 074°08'0 0.0
2018-Jul-20 15:59N 40°41' W 074°08'0 0.0
2018-Jul-20 15:29N 40°41' W 074°08'0 0.0
2018-Jul-20 14:59N 40°41' W 074°08'0 0.0
2018-Jul-20 14:29N 40°41' W 074°08'0 0.0
2018-Jul-20 13:56N 40°41' W 074°08'0 0.0
2018-Jul-20 13:29N 40°41' W 074°08'0 0.0
2018-Jul-20 12:59N 40°41' W 074°08'0 0.0
2018-Jul-20 12:29N 40°41' W 074°08'0 0.0
2018-Jul-20 11:59N 40°41' W 074°08'0 0.0
2018-Jul-20 11:29N 40°41' W 074°08'0 0.0
2018-Jul-20 10:59N 40°41' W 074°08'0 0.0
2018-Jul-20 10:29N 40°41' W 074°08'0 0.0
2018-Jul-20 09:59N 40°41' W 074°08'0 0.0
2018-Jul-20 09:29N 40°41' W 074°08'0 0.0
2018-Jul-20 08:59N 40°41' W 074°08'0 0.0
2018-Jul-20 08:29N 40°41' W 074°08'0 0.0
2018-Jul-20 07:59N 40°41' W 074°08'0 0.0
2018-Jul-20 07:29N 40°41' W 074°08'0 0.0
2018-Jul-20 06:59N 40°41' W 074°08'0 0.0
2018-Jul-20 06:29N 40°41' W 074°08'0 0.0
2018-Jul-20 05:59N 40°41' W 074°08'0 0.0
2018-Jul-20 05:26N 40°41' W 074°08'0 0.0
2018-Jul-20 04:59N 40°41' W 074°08'0 0.0
2018-Jul-20 04:29N 40°41' W 074°08'0 0.0
2018-Jul-20 03:59N 40°41' W 074°08'0 0.0
2018-Jul-20 03:29N 40°41' W 074°08'0 0.0
2018-Jul-20 02:59N 40°41' W 074°08'0 0.0
2018-Jul-20 02:29N 40°41' W 074°08'0 0.0
2018-Jul-20 01:59N 40°41' W 074°08'0 0.0
2018-Jul-20 01:29N 40°41' W 074°08'0 0.1
2018-Jul-20 01:00N 40°41' W 074°08'1 2.7
2018-Jul-20 00:30N 40°40' W 074°08'2 3.6
2018-Jul-20 00:00N 40°39' W 074°07'3 6.0
2018-Jul-19 23:30N 40°38' W 074°03'5 9.5
2018-Jul-19 23:00N 40°33' W 074°02'611.5
2018-Jul-19 22:30N 40°30' W 073°55'611.3
2018-Jul-19 22:00N 40°27' W 073°49'3 6.9
2018-Jul-19 21:30N 40°24' W 073°47'11 7.5
2018-Jul-19 20:00N 40°12' W 073°45'1513.1
2018-Jul-19 18:53N 39°58' W 073°44'616.0
2018-Jul-19 18:29N 39°52' W 073°43'816.2
2018-Jul-19 17:59N 39°43' W 073°42'1016.0
2018-Jul-19 17:19N 39°33' W 073°42'616.2
2018-Jul-19 16:57N 39°27' W 073°42'1916.1
2018-Jul-19 15:48N 39°08' W 073°41'3215.9
2018-Jul-19 13:46N 38°37' W 073°51'1016.2
2018-Jul-19 13:09N 38°28' W 073°53'416.0
2018-Jul-19 12:52N 38°23' W 073°55'615.7
2018-Jul-19 12:30N 38°18' W 073°57'1315.1
2018-Jul-19 11:39N 38°06' W 074°04'215.4
2018-Jul-19 11:30N 38°04' W 074°06'815.3
2018-Jul-19 11:00N 37°57' W 074°10'2615.1
2018-Jul-19 09:18N 37°32' W 074°19'515.2
2018-Jul-19 08:58N 37°27' W 074°21'715.5
2018-Jul-19 08:31N 37°21' W 074°23'815.8
2018-Jul-19 08:00N 37°13' W 074°25'815.8
2018-Jul-19 07:29N 37°05' W 074°26'  
2018-Jul-12 14:31N 09°30' W 079°51'014.3
2018-Jul-12 14:30N 09°30' W 079°51'612.5
2018-Jul-12 14:00N 09°24' W 079°55'5 9.2
2018-Jul-12 13:30N 09°20' W 079°55'3 5.1
2018-Jul-12 12:53N 09°17' W 079°55'0 0.4
2018-Jul-12 12:26N 09°16' W 079°55'0 0.7
2018-Jul-12 12:00N 09°16' W 079°55'1 1.4
2018-Jul-12 11:30N 09°15' W 079°55'4 7.2
2018-Jul-12 10:59N 09°12' W 079°54'  
Track history (hours):
 
Tides and Currents Weather Stations Pressure Air Temp Water Temp Dewpoint Dewpoint Depression Visibility Wind Speed Wind Dir Waves Ship Positions

New Nada

Last reported at 2018-Jul-21 09:38 UTC. Time now 2018-Jul-22 14:45 UTC.
Position N 39°18' W 072°60'.

Length 180 m; beam 32.2 m.

Type: Cargo ship. MMSI: 356005000.

Date/timePositionNaut miles runAvg speedWind from/ knotsBaromVisibWave heightAir tempDewpointWater temp
2018-Jul-21 09:38N 39°18' W 072°60'2316.9
2018-Jul-21 08:17N 39°39' W 073°09'5715.7
2018-Jul-21 04:41N 40°27' W 073°49'2 8.8
2018-Jul-21 04:30N 40°28' W 073°51'612.0
2018-Jul-21 04:01N 40°31' W 073°58'713.2
2018-Jul-21 03:30N 40°36' W 074°03'4 8.0
2018-Jul-21 03:00N 40°39' W 074°07'2 3.5
2018-Jul-21 02:30N 40°40' W 074°08'2 2.9
2018-Jul-21 01:59N 40°41' W 074°08'0 0.0
2018-Jul-21 01:29N 40°41' W 074°08'0 0.0
2018-Jul-21 00:59N 40°41' W 074°08'0 0.0
2018-Jul-21 00:26N 40°41' W 074°08'0 0.0
2018-Jul-20 23:59N 40°41' W 074°08'0 0.0
2018-Jul-20 23:29N 40°41' W 074°08'0 0.0
2018-Jul-20 22:59N 40°41' W 074°08'0 0.0
2018-Jul-20 22:26N 40°41' W 074°08'0 0.0
2018-Jul-20 21:59N 40°41' W 074°08'0 0.0
2018-Jul-20 21:29N 40°41' W 074°08'0 0.0
2018-Jul-20 20:59N 40°41' W 074°08'0 0.0
2018-Jul-20 20:29N 40°41' W 074°08'0 0.0
2018-Jul-20 19:59N 40°41' W 074°08'0 0.0
2018-Jul-20 19:29N 40°41' W 074°08'0 0.0
2018-Jul-20 18:56N 40°41' W 074°08'0 0.0
2018-Jul-20 18:29N 40°41' W 074°08'0 0.0
2018-Jul-20 17:59N 40°41' W 074°08'0 0.0
2018-Jul-20 17:29N 40°41' W 074°08'0 0.0
2018-Jul-20 16:59N 40°41' W 074°08'0 0.0
2018-Jul-20 16:29N 40°41' W 074°08'0 0.0
2018-Jul-20 15:59N 40°41' W 074°08'0 0.0
2018-Jul-20 15:29N 40°41' W 074°08'0 0.0
2018-Jul-20 14:59N 40°41' W 074°08'0 0.0
2018-Jul-20 14:29N 40°41' W 074°08'0 0.0
2018-Jul-20 13:56N 40°41' W 074°08'0 0.0
2018-Jul-20 13:29N 40°41' W 074°08'0 0.0
2018-Jul-20 12:59N 40°41' W 074°08'0 0.0
2018-Jul-20 12:29N 40°41' W 074°08'0 0.0
2018-Jul-20 11:59N 40°41' W 074°08'0 0.0
2018-Jul-20 11:29N 40°41' W 074°08'0 0.0
2018-Jul-20 10:59N 40°41' W 074°08'0 0.0
2018-Jul-20 10:29N 40°41' W 074°08'0 0.0
2018-Jul-20 09:59N 40°41' W 074°08'0 0.0
2018-Jul-20 09:29N 40°41' W 074°08'0 0.0
2018-Jul-20 08:59N 40°41' W 074°08'0 0.0
2018-Jul-20 08:29N 40°41' W 074°08'0 0.0
2018-Jul-20 07:59N 40°41' W 074°08'0 0.0
2018-Jul-20 07:29N 40°41' W 074°08'0 0.0
2018-Jul-20 06:59N 40°41' W 074°08'0 0.0
2018-Jul-20 06:29N 40°41' W 074°08'0 0.0
2018-Jul-20 05:59N 40°41' W 074°08'0 0.0
2018-Jul-20 05:26N 40°41' W 074°08'0 0.0
2018-Jul-20 04:59N 40°41' W 074°08'0 0.0
2018-Jul-20 04:29N 40°41' W 074°08'0 0.0
2018-Jul-20 03:59N 40°41' W 074°08'0 0.0
2018-Jul-20 03:29N 40°41' W 074°08'0 0.0
2018-Jul-20 02:59N 40°41' W 074°08'0 0.0
2018-Jul-20 02:29N 40°41' W 074°08'0 0.0
2018-Jul-20 01:59N 40°41' W 074°08'0 0.0
2018-Jul-20 01:29N 40°41' W 074°08'0 0.1
2018-Jul-20 01:00N 40°41' W 074°08'1 2.7
2018-Jul-20 00:30N 40°40' W 074°08'2 3.6
2018-Jul-20 00:00N 40°39' W 074°07'3 6.0
2018-Jul-19 23:30N 40°38' W 074°03'5 9.5
2018-Jul-19 23:00N 40°33' W 074°02'611.5
2018-Jul-19 22:30N 40°30' W 073°55'611.3
2018-Jul-19 22:00N 40°27' W 073°49'3 6.9
2018-Jul-19 21:30N 40°24' W 073°47'11 7.5
2018-Jul-19 20:00N 40°12' W 073°45'1513.1
2018-Jul-19 18:53N 39°58' W 073°44'616.0
2018-Jul-19 18:29N 39°52' W 073°43'816.2
2018-Jul-19 17:59N 39°43' W 073°42'1016.0
2018-Jul-19 17:19N 39°33' W 073°42'616.2
2018-Jul-19 16:57N 39°27' W 073°42'1916.1
2018-Jul-19 15:48N 39°08' W 073°41'3215.9
2018-Jul-19 13:46N 38°37' W 073°51'1016.2
2018-Jul-19 13:09N 38°28' W 073°53'416.0
2018-Jul-19 12:52N 38°23' W 073°55'615.7
2018-Jul-19 12:30N 38°18' W 073°57'1315.1
2018-Jul-19 11:39N 38°06' W 074°04'215.4
2018-Jul-19 11:30N 38°04' W 074°06'815.3
2018-Jul-19 11:00N 37°57' W 074°10'2615.1
2018-Jul-19 09:18N 37°32' W 074°19'515.2
2018-Jul-19 08:58N 37°27' W 074°21'715.5
2018-Jul-19 08:31N 37°21' W 074°23'815.8
2018-Jul-19 08:00N 37°13' W 074°25'815.8
2018-Jul-19 07:29N 37°05' W 074°26'  
2018-Jul-12 14:31N 09°30' W 079°51'014.3
2018-Jul-12 14:30N 09°30' W 079°51'612.5
2018-Jul-12 14:00N 09°24' W 079°55'5 9.2
2018-Jul-12 13:30N 09°20' W 079°55'3 5.1
2018-Jul-12 12:53N 09°17' W 079°55'0 0.4
2018-Jul-12 12:26N 09°16' W 079°55'0 0.7
2018-Jul-12 12:00N 09°16' W 079°55'1 1.4
2018-Jul-12 11:30N 09°15' W 079°55'4 7.2
2018-Jul-12 10:59N 09°12' W 079°54'  

Dump ship's entire track history